KVRB/VRB METAR and TAF weather

Enter ICAO airport designator
Station Type Date Time Source
KVRB METAR 2021/05/17 21:53 UTC NOAA

KVRB 172153Z 09011G18KT 10SM FEW041 26/16 A3012 RMK AO2 SLP198 T02560156


Station Type Date Time Source
KVRB Decoded METAR 2021/05/17 21:53 UTC NOAA

VERO BEACH MUNICIPAL AIRPORT , FL, United States (KVRB) 27-39N 080-25W 10M
May 17, 2021 - 05:53 PM EDT / 2021.05.17 2153 UTC
Wind: from the E (090 degrees) at 13 MPH (11 KT) gusting to 21 MPH (18 KT):0
Visibility: 10 mile(s):0
Sky conditions: mostly clear
Temperature: 78.1 F (25.6 C)
Dew Point: 60.1 F (15.6 C)
Relative Humidity: 53%
Pressure (altimeter): 30.12 in. Hg (1019 hPa)
ob: KVRB 172153Z 09011G18KT 10SM FEW041 26/16 A3012 RMK AO2 SLP198 T02560156
cycle: 22

Station Type Date Time Source
KVRB TAF 2021/05/17 18:45 UTC NOAA

TAF KVRB 171742Z 1718/1818 07013KT P6SM SCT035
FM180200 09011KT P6SM SCT045 BKN250
FM181500 08017G24KT P6SM SCT035 SCT050 BKN250

Example: see airport list